Time;durP1;ratioP1;P1;durP2;ratioP2;P2;SDS_P1;SDS_P2;PMS_P1;PMS_P2;Temp;Humidity;BMP_temperature;BMP_pressure;BME280_temperature;BME280_humidity;BME280_pressure;Samples;Min_cycle;Max_cycle;Signal;HPM_P1;HPM_P2
2022/01/31 00:02:11;;;;;;;22.37;9.53;;;;;;;6.70;41.92;97055.41;5108828;28;20122;-66
2022/01/31 00:04:37;;;;;;;20.87;10.10;;;;;;;6.40;41.86;97051.44;5110989;28;20507;-66
2022/01/31 00:07:03;;;;;;;19.80;9.67;;;;;;;6.57;41.93;97046.63;5112441;28;20039;-67
2022/01/31 00:09:29;;;;;;;22.13;11.13;;;;;;;6.66;41.70;97056.00;5111209;28;20414;-67
2022/01/31 00:12:05;;;;;;;19.27;9.73;;;;;;;6.69;41.65;97071.44;5112281;28;20044;-67
2022/01/31 00:14:36;;;;;;;18.27;9.43;;;;;;;6.62;41.35;97034.50;5095190;28;20053;-74
2022/01/31 00:17:02;;;;;;;23.38;9.30;;;;;;;6.87;41.38;97050.63;5111974;28;20082;-70
2022/01/31 00:19:28;;;;;;;21.93;9.97;;;;;;;6.61;41.48;97034.72;5110747;28;20035;-68
2022/01/31 00:21:54;;;;;;;18.97;9.73;;;;;;;6.74;41.77;97027.66;5112059;28;20058;-67
2022/01/31 00:24:20;;;;;;;22.73;10.07;;;;;;;6.40;41.79;97003.97;5076731;28;20035;-68
2022/01/31 00:26:46;;;;;;;23.40;11.17;;;;;;;6.70;41.69;97044.06;5111965;28;20099;-68
2022/01/31 00:29:12;;;;;;;19.63;9.43;;;;;;;6.61;41.59;97035.50;5110517;28;20046;-67
2022/01/31 00:31:38;;;;;;;27.57;10.67;;;;;;;6.58;41.74;97030.63;5110373;28;20187;-68
2022/01/31 00:34:03;;;;;;;23.20;10.40;;;;;;;6.63;41.76;97033.50;5111737;28;20408;-68
2022/01/31 00:36:29;;;;;;;24.50;10.90;;;;;;;6.57;41.96;97041.38;5111799;28;20126;-67
2022/01/31 00:38:55;;;;;;;25.73;10.70;;;;;;;6.55;41.86;97017.03;5111538;28;20043;-68
2022/01/31 00:41:21;;;;;;;22.33;10.37;;;;;;;6.61;41.85;97032.84;5111563;28;20047;-67
2022/01/31 00:43:57;;;;;;;24.47;10.77;;;;;;;6.63;41.73;97038.75;5111593;28;20040;-67
2022/01/31 00:46:29;;;;;;;23.37;10.43;;;;;;;6.54;41.90;97026.75;5111465;28;20044;-68
2022/01/31 00:48:55;;;;;;;33.23;11.07;;;;;;;6.57;41.76;97028.19;5110260;28;20047;-68
2022/01/31 00:51:21;;;;;;;22.23;11.37;;;;;;;6.61;41.59;97027.59;5110320;28;20043;-68
2022/01/31 00:53:46;;;;;;;25.70;11.47;;;;;;;6.64;41.68;97018.50;5111260;28;20047;-67
2022/01/31 00:56:12;;;;;;;21.73;10.00;;;;;;;6.46;41.73;97021.66;5111370;28;20076;-67
2022/01/31 00:58:38;;;;;;;18.33;9.80;;;;;;;6.63;41.75;97017.66;5111248;28;20476;-67
2022/01/31 01:01:04;;;;;;;22.07;10.67;;;;;;;6.61;41.62;97014.41;5111395;28;20043;-71
2022/01/31 01:03:29;;;;;;;23.83;10.20;;;;;;;6.55;41.99;97023.09;5111605;28;20504;-68
2022/01/31 01:05:55;;;;;;;23.37;10.67;;;;;;;6.59;41.89;97016.44;5111220;28;20078;-67
2022/01/31 01:08:21;;;;;;;23.57;11.07;;;;;;;6.58;41.88;97012.16;5093200;28;20040;-66
2022/01/31 01:10:47;;;;;;;22.27;11.20;;;;;;;6.54;41.97;97007.47;5111727;28;20055;-67
2022/01/31 01:13:13;;;;;;;26.07;11.87;;;;;;;6.53;42.00;97014.56;5110160;28;20070;-70
2022/01/31 01:15:38;;;;;;;25.07;11.43;;;;;;;6.50;41.99;97016.81;5111323;28;20047;-68
2022/01/31 01:18:04;;;;;;;23.70;10.73;;;;;;;6.44;42.06;97002.56;5111657;28;20063;-68
2022/01/31 01:20:31;;;;;;;24.80;11.00;;;;;;;6.74;41.77;97014.47;5093433;28;20036;-69
2022/01/31 01:22:57;;;;;;;24.57;11.47;;;;;;;6.53;41.95;97022.47;5110055;28;20071;-67
2022/01/31 01:25:24;;;;;;;25.17;10.63;;;;;;;6.24;42.09;96962.13;5109687;28;20130;-71
2022/01/31 01:27:53;;;;;;;21.47;10.67;;;;;;;6.47;42.23;97014.56;5109755;28;20532;-68
2022/01/31 01:30:19;;;;;;;21.63;10.77;;;;;;;6.53;42.21;97019.84;5076999;28;20086;-67
2022/01/31 01:35:29;;;;;;;25.33;11.77;;;;;;;6.77;42.01;97016.72;5109754;28;20031;-69
2022/01/31 01:37:55;;;;;;;26.00;11.88;;;;;;;6.63;42.07;97011.56;5076612;28;20380;-66
2022/01/31 01:40:21;;;;;;;28.33;11.67;;;;;;;6.67;42.15;97015.47;5110845;28;20085;-66
2022/01/31 01:42:47;;;;;;;26.67;11.83;;;;;;;6.61;42.17;97016.25;5110638;28;20134;-67
2022/01/31 01:45:12;;;;;;;28.17;11.23;;;;;;;6.69;42.07;97027.44;5111001;28;20491;-67
2022/01/31 01:47:41;;;;;;;25.73;10.43;;;;;;;6.60;41.92;97015.44;5109574;28;20044;-66
2022/01/31 01:50:07;;;;;;;29.40;12.07;;;;;;;6.84;41.95;97020.16;5110841;28;20507;-72
2022/01/31 01:52:34;;;;;;;24.93;11.13;;;;;;;6.80;42.00;97018.94;5111384;28;20039;-68
2022/01/31 01:55:01;;;;;;;26.53;11.00;;;;;;;6.95;41.95;97024.06;5113470;28;20059;-66
2022/01/31 01:57:29;;;;;;;31.07;12.23;;;;;;;6.70;42.04;97029.03;5096724;28;20479;-68
2022/01/31 01:59:57;;;;;;;35.47;12.50;;;;;;;6.79;42.15;97027.88;5113474;28;20122;-66
2022/01/31 02:02:43;;;;;;;25.80;10.80;;;;;;;7.09;42.08;97032.84;5113435;28;20039;-68
2022/01/31 02:05:13;;;;;;;24.80;10.67;;;;;;;6.73;41.92;96989.09;5113302;28;20137;-66
2022/01/31 02:07:40;;;;;;;28.03;12.07;;;;;;;6.99;41.78;97019.19;5096413;28;20040;-68
2022/01/31 02:10:09;;;;;;;33.30;12.00;;;;;;;6.90;41.70;96969.25;5096249;28;20039;-67
2022/01/31 02:12:48;;;;;;;28.50;11.73;;;;;;;7.09;41.48;97004.59;5112616;28;20075;-67
2022/01/31 02:15:26;;;;;;;21.87;9.80;;;;;;;6.97;41.57;97021.22;5097523;28;20506;-68
2022/01/31 02:18:10;;;;;;;23.83;11.27;;;;;;;7.04;41.48;97012.34;5114072;28;20055;-68
2022/01/31 02:20:40;;;;;;;24.30;9.67;;;;;;;7.57;41.35;97026.41;5113025;28;20046;-68
2022/01/31 02:23:12;;;;;;;24.57;10.63;;;;;;;7.43;41.64;97006.28;5095919;28;20515;-67
2022/01/31 02:25:56;;;;;;;24.17;10.37;;;;;;;7.62;41.42;97021.31;5112237;28;20039;-70
2022/01/31 02:28:46;;;;;;;29.10;10.67;;;;;;;6.95;41.71;97023.25;5094224;28;20548;-68
2022/01/31 02:31:13;;;;;;;22.63;9.90;;;;;;;6.91;41.93;97012.28;5094348;28;20483;-68
2022/01/31 02:33:40;;;;;;;25.50;10.40;;;;;;;6.70;41.85;96986.06;5111502;28;20047;-71
2022/01/31 02:36:06;;;;;;;21.60;11.03;;;;;;;6.93;42.03;97023.47;5111754;28;20047;-69
2022/01/31 02:38:33;;;;;;;27.67;10.60;;;;;;;7.07;41.95;97017.22;5111482;28;20085;-68
2022/01/31 02:41:00;;;;;;;29.07;10.53;;;;;;;6.85;41.90;96986.69;5095192;28;20491;-68
2022/01/31 02:43:31;;;;;;;24.80;9.80;;;;;;;7.21;41.84;96996.94;5112791;28;20044;-67
2022/01/31 02:45:58;;;;;;;23.00;10.90;;;;;;;7.10;41.96;97008.91;5095801;28;20047;-68
2022/01/31 02:48:26;;;;;;;23.90;9.87;;;;;;;7.11;42.20;97020.25;5095244;28;20048;-68
2022/01/31 02:50:53;;;;;;;19.63;8.00;;;;;;;6.99;42.00;97003.38;5112120;28;20491;-67
2022/01/31 02:53:31;;;;;;;30.90;10.93;;;;;;;7.13;42.10;97016.41;5094701;28;20047;-68
2022/01/31 02:56:00;;;;;;;22.63;10.50;;;;;;;7.37;41.81;97007.09;5111978;28;20130;-69
2022/01/31 02:58:27;;;;;;;25.47;10.80;;;;;;;7.33;41.90;97017.25;5077875;28;20039;-68
2022/01/31 03:00:55;;;;;;;23.97;10.83;;;;;;;7.18;42.05;97015.81;5094446;28;20067;-68
2022/01/31 03:03:41;;;;;;;26.27;10.47;;;;;;;6.98;42.05;97014.94;5110506;28;20067;-73
2022/01/31 03:06:07;;;;;;;23.97;10.57;;;;;;;6.83;42.14;97018.56;5094961;28;20050;-68
2022/01/31 03:08:33;;;;;;;24.20;11.13;;;;;;;6.93;42.28;97021.63;5077194;28;20476;-68
2022/01/31 03:11:12;;;;;;;21.43;10.40;;;;;;;6.92;42.33;97013.91;5111337;28;20039;-69
2022/01/31 03:13:56;;;;;;;28.47;10.33;;;;;;;7.02;42.25;97032.00;5096771;28;20076;-67
2022/01/31 03:16:22;;;;;;;26.33;9.93;;;;;;;6.90;41.91;97002.75;5111312;28;20063;-68
2022/01/31 03:19:23;;;;;;;23.23;10.90;;;;;;;6.72;42.22;96974.28;5096725;28;20617;-64
2022/01/31 03:21:54;;;;;;;29.77;11.03;;;;;;;7.04;42.13;97017.59;5111055;28;20538;-66
2022/01/31 03:24:20;;;;;;;24.23;10.70;;;;;;;6.96;42.39;97030.16;5094217;28;20035;-66
2022/01/31 03:26:46;;;;;;;24.40;10.77;;;;;;;7.02;42.14;97029.34;5112019;28;20487;-67
2022/01/31 03:29:14;;;;;;;23.90;10.07;;;;;;;7.03;42.00;97020.44;5110844;28;20050;-68
2022/01/31 03:31:40;;;;;;;27.30;12.13;;;;;;;7.13;41.98;97015.59;5093639;28;20040;-67
2022/01/31 03:34:06;;;;;;;22.93;10.60;;;;;;;7.14;42.21;97022.47;5093389;28;20485;-68
2022/01/31 03:36:32;;;;;;;26.00;10.80;;;;;;;6.90;42.17;96998.28;5093439;28;20051;-68
2022/01/31 03:38:58;;;;;;;30.73;12.00;;;;;;;7.06;42.00;97026.13;5109960;28;20180;-67
2022/01/31 03:41:25;;;;;;;25.00;11.13;;;;;;;7.00;42.14;97029.56;5110236;28;20097;-67
2022/01/31 03:43:51;;;;;;;24.03;11.67;;;;;;;7.07;42.07;97016.38;5093241;28;20051;-67
2022/01/31 03:46:17;;;;;;;21.63;11.07;;;;;;;7.13;42.15;97010.31;5110071;28;20556;-68
2022/01/31 03:48:45;;;;;;;26.53;11.53;;;;;;;7.08;42.05;97028.56;5093160;28;20051;-74
2022/01/31 03:51:31;;;;;;;25.03;11.07;;;;;;;7.06;41.86;97012.13;5093603;28;20047;-72
2022/01/31 03:53:57;;;;;;;30.97;11.57;;;;;;;7.00;41.94;97012.91;5093026;28;20046;-66
2022/01/31 03:56:23;;;;;;;24.03;10.70;;;;;;;7.09;42.23;97009.09;5109784;28;20487;-67
2022/01/31 03:58:59;;;;;;;26.70;10.43;;;;;;;7.22;42.03;97022.28;5094206;28;20039;-67
2022/01/31 04:01:26;;;;;;;28.33;11.50;;;;;;;6.95;42.10;96983.69;5109912;28;20036;-67
2022/01/31 04:03:51;;;;;;;27.80;11.23;;;;;;;7.18;41.92;97016.59;5109692;28;20069;-67
2022/01/31 04:06:17;;;;;;;25.20;10.47;;;;;;;7.13;42.17;97019.03;5111351;28;20407;-67
2022/01/31 04:08:43;;;;;;;25.43;9.93;;;;;;;6.96;42.27;96972.94;5111232;28;20536;-66
2022/01/31 04:11:10;;;;;;;28.80;11.20;;;;;;;7.58;41.77;97025.41;5110180;28;20043;-69
2022/01/31 04:13:36;;;;;;;32.57;11.30;;;;;;;7.45;42.02;97020.91;5110681;28;20036;-67
2022/01/31 04:16:02;;;;;;;26.80;11.60;;;;;;;7.31;42.09;97015.81;5109306;28;20046;-67
2022/01/31 04:18:28;;;;;;;26.77;11.60;;;;;;;7.39;42.04;96994.50;5109664;28;20427;-67
2022/01/31 04:20:54;;;;;;;19.70;9.23;;;;;;;7.29;41.95;97012.59;5109672;28;20049;-68
2022/01/31 04:23:22;;;;;;;29.27;10.30;;;;;;;7.27;41.78;97002.22;5109702;28;20039;-67
2022/01/31 04:28:25;;;;;;;28.93;11.63;;;;;;;7.64;41.91;97008.75;5110552;28;20040;-70
2022/01/31 04:33:42;;;;;;;19.08;9.02;;;;;;;7.46;42.02;97005.88;5081696;28;20047;-66
2022/01/31 04:36:10;;;;;;;22.40;8.57;;;;;;;7.48;41.80;96998.56;5109502;28;20051;-67
2022/01/31 04:38:36;;;;;;;18.50;9.40;;;;;;;7.35;41.90;97001.22;5109638;28;20035;-66
2022/01/31 04:41:02;;;;;;;27.23;10.80;;;;;;;7.29;41.71;96992.25;5110641;28;20039;-65
2022/01/31 04:43:27;;;;;;;20.27;9.50;;;;;;;7.31;42.26;97007.88;5108919;28;20164;-65
2022/01/31 04:45:56;;;;;;;23.57;9.63;;;;;;;7.31;42.08;97007.88;5109203;28;20040;-65
2022/01/31 04:48:21;;;;;;;20.27;8.67;;;;;;;7.01;42.09;96977.59;5110717;28;20496;-65
2022/01/31 04:50:47;;;;;;;22.30;10.67;;;;;;;7.31;42.09;97015.81;5073589;28;20054;-69
2022/01/31 04:53:14;;;;;;;25.43;10.00;;;;;;;7.37;42.17;97020.28;5088930;28;20134;-64
2022/01/31 04:55:40;;;;;;;20.53;9.57;;;;;;;7.44;42.14;97015.84;5089080;28;20052;-65
2022/01/31 04:58:06;;;;;;;17.90;8.93;;;;;;;7.61;42.05;97006.50;5089338;28;20048;-66
2022/01/31 05:00:33;;;;;;;31.17;9.40;;;;;;;7.57;41.99;97026.41;5070661;28;20082;-66
2022/01/31 05:02:58;;;;;;;24.20;10.53;;;;;;;7.33;41.91;97006.69;5105154;28;20044;-64
2022/01/31 05:05:24;;;;;;;22.33;9.30;;;;;;;7.29;42.00;97010.72;5089063;28;20131;-65
2022/01/31 05:07:53;;;;;;;21.23;9.70;;;;;;;7.32;42.01;97009.53;5087793;28;20046;-65
2022/01/31 05:10:19;;;;;;;22.43;9.63;;;;;;;7.13;42.15;96970.72;5089723;28;20123;-67
2022/01/31 05:12:44;;;;;;;25.50;10.70;;;;;;;7.40;42.23;97006.69;5088772;28;20143;-65
2022/01/31 05:15:10;;;;;;;22.73;10.80;;;;;;;7.26;41.93;96976.03;5070676;28;20040;-69
2022/01/31 05:17:36;;;;;;;26.77;10.53;;;;;;;7.37;42.16;97001.81;5087595;28;20055;-66
2022/01/31 05:20:03;;;;;;;24.73;10.60;;;;;;;7.56;42.15;97017.69;5088760;28;20143;-65
2022/01/31 05:22:29;;;;;;;30.30;11.13;;;;;;;7.22;42.21;97024.94;5088915;28;20440;-64
2022/01/31 05:24:55;;;;;;;23.73;10.43;;;;;;;7.39;42.07;97011.16;5087808;28;20040;-65
2022/01/31 05:27:21;;;;;;;25.10;10.60;;;;;;;7.33;41.82;97014.63;5088691;28;20545;-66
2022/01/31 05:29:46;;;;;;;25.20;11.20;;;;;;;7.48;41.91;97035.53;5091645;28;20044;-68
2022/01/31 05:32:12;;;;;;;24.70;11.13;;;;;;;7.35;41.75;97032.91;5093172;28;20089;-66
2022/01/31 05:34:38;;;;;;;28.03;10.47;;;;;;;7.37;41.90;97022.91;5092809;28;20040;-66
2022/01/31 05:37:04;;;;;;;22.90;9.80;;;;;;;7.23;41.84;96993.06;5091638;28;20090;-66
2022/01/31 05:39:30;;;;;;;30.30;11.43;;;;;;;7.48;41.97;97035.53;5091397;28;20812;-69
2022/01/31 05:41:56;;;;;;;30.70;11.17;;;;;;;7.45;41.67;96996.34;5091500;28;20040;-66
2022/01/31 05:44:23;;;;;;;19.80;9.80;;;;;;;7.86;41.65;97031.28;5091841;28;20061;-67
2022/01/31 05:46:49;;;;;;;21.17;8.40;;;;;;;7.72;41.71;97027.03;5092989;28;20075;-71
2022/01/31 05:49:15;;;;;;;29.23;11.60;;;;;;;7.70;41.92;97026.41;5093234;28;20083;-66
2022/01/31 05:52:01;;;;;;;20.80;9.73;;;;;;;8.20;41.42;97017.81;5108013;28;20035;-67
2022/01/31 05:54:27;;;;;;;34.63;12.47;;;;;;;7.87;41.71;97036.34;5107542;28;20052;-66
2022/01/31 05:56:55;;;;;;;27.33;11.07;;;;;;;7.84;41.94;97023.53;5108208;28;20052;-66
2022/01/31 05:59:20;;;;;;;34.87;12.13;;;;;;;7.59;41.63;97000.59;5092682;28;20044;-66
2022/01/31 06:01:46;;;;;;;32.50;12.13;;;;;;;7.86;41.52;97023.34;5092245;28;20039;-66
2022/01/31 06:04:12;;;;;;;34.03;13.40;;;;;;;7.73;41.48;96992.50;5093108;28;20036;-65
2022/01/31 06:06:38;;;;;;;31.77;11.63;;;;;;;7.93;41.74;97026.81;5093557;28;20063;-66
2022/01/31 06:09:04;;;;;;;35.60;13.33;;;;;;;8.02;41.50;97022.94;5093073;28;20047;-66
2022/01/31 06:11:31;;;;;;;45.13;14.03;;;;;;;8.00;41.51;97030.25;5091026;28;20043;-66
2022/01/31 06:14:00;;;;;;;28.67;10.07;;;;;;;8.26;41.75;97011.72;5090620;28;20133;-65
2022/01/31 06:16:26;;;;;;;36.03;12.50;;;;;;;8.17;41.57;97020.88;5092605;28;20131;-66
2022/01/31 06:18:52;;;;;;;27.50;12.23;;;;;;;8.06;41.83;97034.72;5092137;28;20101;-65
2022/01/31 06:21:18;;;;;;;41.90;14.57;;;;;;;8.03;41.71;97025.38;5091058;28;20049;-65
2022/01/31 06:23:44;;;;;;;29.93;10.63;;;;;;;8.10;41.69;97020.09;5091121;28;20047;-65
2022/01/31 06:26:10;;;;;;;46.50;14.47;;;;;;;8.07;41.68;97013.34;5090912;28;20044;-66
2022/01/31 06:28:37;;;;;;;38.47;14.60;;;;;;;7.99;41.71;97000.38;5091048;28;20048;-65
2022/01/31 06:31:22;;;;;;;47.80;14.83;;;;;;;7.84;41.66;96991.84;5090079;28;20161;-66
2022/01/31 06:33:48;;;;;;;43.57;13.07;;;;;;;7.95;42.00;97017.66;5073636;28;20522;-69
2022/01/31 06:36:14;;;;;;;40.27;12.63;;;;;;;7.92;42.04;97009.31;5091939;28;20036;-66
2022/01/31 06:38:40;;;;;;;46.50;13.57;;;;;;;8.04;41.94;97020.91;5090617;28;20908;-66
2022/01/31 06:41:08;;;;;;;36.30;12.80;;;;;;;8.31;41.86;97002.16;5090463;28;20036;-65
2022/01/31 06:43:33;;;;;;;44.97;14.37;;;;;;;7.97;41.80;97010.34;5091883;28;20040;-66
2022/01/31 06:45:59;;;;;;;44.17;15.00;;;;;;;7.98;42.06;97006.66;5092005;28;20043;-66
2022/01/31 06:48:25;;;;;;;43.47;14.40;;;;;;;7.96;42.13;97015.84;5074035;28;20044;-66
2022/01/31 06:50:50;;;;;;;40.83;14.37;;;;;;;8.05;42.07;97006.66;5090547;28;20044;-68
2022/01/31 06:53:18;;;;;;;43.97;14.10;;;;;;;8.07;42.12;96999.34;5091584;28;20047;-66
2022/01/31 06:55:43;;;;;;;40.10;13.17;;;;;;;8.03;42.11;97008.69;5091393;28;20039;-65
2022/01/31 06:58:09;;;;;;;47.93;15.17;;;;;;;8.06;42.00;97008.28;5073649;28;20409;-66
2022/01/31 07:00:35;;;;;;;44.20;13.87;;;;;;;8.20;42.18;97015.16;5090070;28;20044;-66
2022/01/31 07:03:03;;;;;;;48.40;15.87;;;;;;;8.15;42.13;97010.50;5091464;28;20040;-66
2022/01/31 07:05:29;;;;;;;22.20;7.90;;;;;;;8.34;42.12;96993.81;5091050;28;20450;-66
2022/01/31 07:07:55;;;;;;;39.30;13.07;;;;;;;8.27;41.89;97018.66;5091682;28;20097;-66
2022/01/31 07:10:20;;;;;;;48.50;14.30;;;;;;;8.24;42.09;97019.88;5091649;28;20135;-66
2022/01/31 07:12:53;;;;;;;57.93;15.73;;;;;;;8.37;42.00;97011.09;5090801;28;20032;-65
2022/01/31 07:15:21;;;;;;;56.80;15.70;;;;;;;8.17;41.98;96976.75;5090086;28;20036;-65
2022/01/31 07:17:46;;;;;;;49.63;15.90;;;;;;;8.42;41.93;97008.66;5090778;28;20056;-66
2022/01/31 07:20:34;;;;;;;43.67;14.40;;;;;;;8.78;42.00;97010.75;5090473;28;20207;-65
2022/01/31 07:23:07;;;;;;;46.87;14.83;;;;;;;8.41;41.96;97010.47;5089765;28;20052;-66
2022/01/31 07:25:36;;;;;;;41.87;14.07;;;;;;;8.24;41.93;96969.63;5055588;28;20067;-65
2022/01/31 07:28:05;;;;;;;40.90;13.87;;;;;;;8.76;41.61;97008.31;5073669;28;20120;-65
2022/01/31 07:30:31;;;;;;;56.83;15.70;;;;;;;8.62;41.74;97012.03;5072636;28;20138;-65
2022/01/31 07:32:56;;;;;;;56.97;15.97;;;;;;;8.50;41.78;97016.34;5089281;28;20156;-66
2022/01/31 07:35:22;;;;;;;57.83;16.23;;;;;;;8.53;41.83;97010.66;5072596;28;20063;-67
2022/01/31 07:37:48;;;;;;;43.17;13.53;;;;;;;8.58;41.82;97006.34;5090186;28;20040;-66
2022/01/31 07:40:14;;;;;;;58.47;18.40;;;;;;;8.40;42.04;97016.78;5072621;28;20041;-67
2022/01/31 07:42:40;;;;;;;60.10;17.07;;;;;;;8.52;42.04;97007.19;5072422;28;20454;-66
2022/01/31 07:45:06;;;;;;;50.53;15.43;;;;;;;8.64;41.94;97004.72;5089488;28;20071;-66
2022/01/31 07:47:32;;;;;;;48.50;15.57;;;;;;;8.43;41.94;96992.56;5072587;28;20036;-67
2022/01/31 07:49:57;;;;;;;51.30;14.80;;;;;;;8.51;41.99;97012.69;5089880;28;20514;-67
2022/01/31 07:52:24;;;;;;;57.37;16.20;;;;;;;8.34;42.11;96975.31;5091000;28;20040;-67
2022/01/31 07:54:49;;;;;;;54.13;15.90;;;;;;;8.53;41.84;97014.09;5090728;28;20545;-67
2022/01/31 07:57:17;;;;;;;54.70;14.47;;;;;;;8.57;41.74;97007.38;5089290;28;20040;-67
2022/01/31 07:59:43;;;;;;;58.20;15.37;;;;;;;8.54;41.95;97028.94;5090449;28;20214;-67
2022/01/31 08:02:08;;;;;;;46.63;15.17;;;;;;;8.54;41.84;97005.16;5090609;28;20527;-67
2022/01/31 08:04:34;;;;;;;46.60;14.30;;;;;;;8.64;41.74;97020.59;5089621;28;20036;-67
2022/01/31 08:07:00;;;;;;;57.43;18.10;;;;;;;8.60;41.84;97011.44;5090623;28;20042;-67
2022/01/31 08:09:25;;;;;;;53.23;16.00;;;;;;;8.71;41.77;97024.00;5090132;28;20078;-67
2022/01/31 08:11:51;;;;;;;53.17;15.03;;;;;;;8.68;41.71;97034.19;5088908;28;20157;-68
2022/01/31 08:14:19;;;;;;;43.70;13.20;;;;;;;9.00;41.73;97020.00;5090211;28;20056;-68
2022/01/31 08:16:45;;;;;;;63.10;17.13;;;;;;;8.68;41.48;97027.06;5090394;28;20044;-67
2022/01/31 08:19:11;;;;;;;51.83;15.03;;;;;;;8.82;41.75;97018.06;5089210;28;20048;-67
2022/01/31 08:21:37;;;;;;;51.00;14.87;;;;;;;8.65;41.90;97010.78;5108344;28;20526;-66
2022/01/31 08:24:04;;;;;;;66.90;16.60;;;;;;;8.93;41.69;97016.59;5109077;28;20043;-69
2022/01/31 08:26:31;;;;;;;39.33;12.57;;;;;;;9.03;41.16;97025.69;5108513;28;20036;-67
2022/01/31 08:29:00;;;;;;;52.23;15.10;;;;;;;8.96;40.89;97030.22;5107591;28;20036;-68
2022/01/31 08:31:38;;;;;;;57.03;16.30;;;;;;;9.10;41.00;97020.38;5108126;28;20039;-67
2022/01/31 08:36:42;;;;;;;61.60;15.23;;;;;;;9.08;41.07;97017.09;5089459;28;20040;-68
2022/01/31 08:39:10;;;;;;;57.27;15.80;;;;;;;9.20;41.17;97023.34;5104684;28;20059;-68
2022/01/31 08:41:39;;;;;;;60.40;17.87;;;;;;;9.01;41.04;97034.88;5107234;28;20031;-68
2022/01/31 08:44:05;;;;;;;50.07;16.07;;;;;;;8.85;41.14;97022.94;5090027;28;20067;-69
2022/01/31 08:46:32;;;;;;;67.73;16.57;;;;;;;8.85;41.47;97027.41;5090038;28;20502;-67
2022/01/31 08:48:59;;;;;;;56.60;14.83;;;;;;;8.48;41.81;97026.31;5108325;28;20043;-66
2022/01/31 08:51:25;;;;;;;50.10;15.40;;;;;;;8.49;42.03;97009.44;5106262;28;20467;-66
2022/01/31 08:53:51;;;;;;;49.20;14.33;;;;;;;8.11;42.36;96982.06;5108334;28;20045;-67
2022/01/31 08:56:18;;;;;;;67.90;14.87;;;;;;;8.58;42.20;97018.75;5107924;28;20084;-68
2022/01/31 08:58:47;;;;;;;69.53;16.70;;;;;;;8.36;42.08;97015.56;5109140;28;20101;-66
2022/01/31 09:01:21;;;;;;;59.07;14.50;;;;;;;8.77;41.89;96995.88;5107151;28;20056;-67
2022/01/31 09:06:28;;;;;;;67.77;15.87;;;;;;;8.59;42.19;96994.72;5107986;28;20416;-67
2022/01/31 09:08:54;;;;;;;62.37;15.03;;;;;;;8.48;42.33;96997.22;5108547;28;20031;-67
2022/01/31 09:11:20;;;;;;;70.57;16.80;;;;;;;8.55;42.01;97008.59;5108789;28;20047;-68
2022/01/31 09:13:46;;;;;;;68.10;16.33;;;;;;;8.24;42.31;96972.28;5108849;28;20496;-69
2022/01/31 09:16:16;;;;;;;58.37;16.80;;;;;;;9.01;41.86;96998.59;5108068;28;20048;-68
2022/01/31 09:18:42;;;;;;;54.47;16.23;;;;;;;8.65;41.88;96998.38;5046040;28;1298725;-68
2022/01/31 09:21:07;;;;;;;56.17;15.47;;;;;;;8.54;42.21;96983.16;5091449;28;20036;-68
2022/01/31 09:23:33;;;;;;;67.13;15.87;;;;;;;8.46;42.06;96946.38;5108464;28;20087;-68
2022/01/31 09:25:59;;;;;;;63.63;17.20;;;;;;;8.62;41.90;96982.94;5094150;28;20123;-68
2022/01/31 09:28:26;;;;;;;157.87;21.27;;;;;;;8.68;42.01;96962.75;5072232;28;20135;-67
2022/01/31 09:30:53;;;;;;;176.27;19.00;;;;;;;8.75;42.02;97003.25;5088510;28;20055;-68
2022/01/31 09:33:19;;;;;;;53.47;15.37;;;;;;;8.78;42.00;96998.31;5089847;28;20043;-68
2022/01/31 09:35:46;;;;;;;78.73;17.30;;;;;;;8.84;41.94;96971.00;5089527;28;20582;-68
2022/01/31 09:38:14;;;;;;;75.00;18.37;;;;;;;9.03;41.90;96985.16;5057144;28;20060;-68
2022/01/31 09:40:43;;;;;;;48.60;14.37;;;;;;;9.34;41.57;96993.13;5087528;28;20071;-68
2022/01/31 09:48:48;;;;;;;70.63;15.73;;;;;;;9.12;41.71;96995.28;5088583;28;20044;-67
2022/01/31 09:51:20;;;;;;;72.90;17.97;;;;;;;9.48;41.70;97002.59;5087163;28;20561;-67
2022/01/31 09:53:52;;;;;;;80.23;18.10;;;;;;;9.45;41.62;96998.53;5087784;28;20086;-68
2022/01/31 09:56:21;;;;;;;69.70;16.53;;;;;;;9.45;41.68;96992.44;5088368;28;20452;-68
2022/01/31 09:58:48;;;;;;;75.17;18.53;;;;;;;9.12;41.87;96960.09;5071065;28;20097;-66
2022/01/31 10:01:17;;;;;;;81.87;18.23;;;;;;;9.39;41.83;96988.81;5087763;28;20028;-69
2022/01/31 10:04:00;;;;;;;77.07;18.43;;;;;;;9.27;41.88;96982.56;5054414;28;20055;-67
2022/01/31 10:06:39;;;;;;;74.53;17.10;;;;;;;9.56;41.51;97000.47;5088358;28;20458;-72
2022/01/31 10:09:07;;;;;;;87.27;19.07;;;;;;;9.14;41.85;96990.59;5087758;28;20044;-70
2022/01/31 10:12:03;;;;;;;86.60;19.30;;;;;;;9.31;41.75;96978.47;5087361;28;20044;-67
2022/01/31 10:17:35;;;;;;;71.30;18.40;;;;;;;9.52;41.23;96978.09;5056485;28;20147;-69
2022/01/31 10:20:18;;;;;;;55.70;15.60;;;;;;;9.56;41.49;96984.59;5087877;28;20167;-67
2022/01/31 10:22:44;;;;;;;86.17;19.50;;;;;;;9.26;41.83;96980.13;5092376;28;20454;-67
2022/01/31 10:25:14;;;;;;;71.37;16.07;;;;;;;9.52;41.99;96980.75;5090965;28;20490;-68
2022/01/31 10:27:46;;;;;;;82.20;19.00;;;;;;;9.64;41.69;96980.88;5057810;28;20050;-67
2022/01/31 10:30:14;;;;;;;85.57;19.77;;;;;;;9.24;41.92;96972.41;5040349;28;20051;-69
2022/01/31 10:32:42;;;;;;;86.23;19.63;;;;;;;9.70;41.93;96964.91;5056883;28;20039;-67
2022/01/31 10:35:13;;;;;;;67.33;15.73;;;;;;;9.92;41.20;96976.75;5073777;28;20047;-69
2022/01/31 10:37:42;;;;;;;96.65;19.58;;;;;;;9.41;41.62;96925.81;5056882;28;20052;-68
2022/01/31 10:54:16;;;;;;;76.53;18.87;;;;;;;10.03;41.28;96978.69;5095974;28;20089;-68
2022/01/31 10:56:47;;;;;;;88.10;18.80;;;;;;;9.93;41.36;96951.06;5068749;28;20385;-67
2022/01/31 10:59:19;;;;;;;89.53;17.23;;;;;;;9.62;41.39;96922.81;5090333;28;20065;-68
2022/01/31 11:01:52;;;;;;;108.07;22.23;;;;;;;10.00;41.11;96942.00;5073347;28;20039;-67
2022/01/31 11:04:19;;;;;;;85.93;19.10;;;;;;;9.87;41.29;96963.31;5059081;28;20522;-67
2022/01/31 11:06:47;;;;;;;64.40;14.70;;;;;;;10.04;41.29;96968.88;5093762;28;20048;-67
2022/01/31 11:09:15;;;;;;;87.80;18.23;;;;;;;9.89;41.28;96929.47;5093758;28;20067;-69
2022/01/31 11:11:51;;;;;;;94.47;19.90;;;;;;;9.99;41.30;96960.78;5092910;28;20183;-68
2022/01/31 11:14:20;;;;;;;105.97;21.43;;;;;;;9.75;41.25;96954.47;5093311;28;20051;-69
2022/01/31 11:16:47;;;;;;;103.63;20.73;;;;;;;9.74;41.59;96958.16;5105108;28;20181;-66
2022/01/31 11:19:16;;;;;;;84.37;18.10;;;;;;;9.76;41.69;96956.06;5109430;28;20043;-70
2022/01/31 11:21:44;;;;;;;98.00;22.40;;;;;;;9.83;41.48;96953.38;5110063;28;20417;-69
2022/01/31 11:24:19;;;;;;;89.27;20.27;;;;;;;9.89;41.50;96958.63;5075965;28;20495;-69
2022/01/31 11:27:03;;;;;;;93.83;19.60;;;;;;;10.20;41.16;96942.63;5095551;28;20064;-67
2022/01/31 11:29:32;;;;;;;104.13;20.53;;;;;;;9.90;41.43;96952.28;5093526;28;20609;-77
2022/01/31 11:31:59;;;;;;;108.13;21.20;;;;;;;9.95;41.66;96952.44;5076377;28;20043;-68
2022/01/31 11:34:25;;;;;;;47.37;10.97;;;;;;;9.78;42.00;96959.34;5076221;28;20045;-68
2022/01/31 11:36:51;;;;;;;94.77;20.57;;;;;;;9.90;41.77;96956.78;5076558;28;20047;-69
2022/01/31 11:39:17;;;;;;;108.67;21.73;;;;;;;9.85;41.58;96961.94;5093080;28;20097;-69
2022/01/31 11:41:51;;;;;;;96.83;20.80;;;;;;;10.15;40.86;96947.78;5059129;28;20044;-70
2022/01/31 11:44:25;;;;;;;71.57;17.03;;;;;;;10.18;41.26;96960.59;5109895;28;20059;-67
2022/01/31 11:46:55;;;;;;;76.27;16.10;;;;;;;10.15;41.47;96962.88;5110087;28;20044;-68
2022/01/31 11:49:21;;;;;;;99.03;20.53;;;;;;;10.01;41.70;96948.91;5092555;28;20529;-67
2022/01/31 11:52:04;;;;;;;101.00;19.67;;;;;;;10.53;40.93;96957.34;5108974;28;20050;-65
2022/01/31 11:54:30;;;;;;;91.67;16.90;;;;;;;10.16;41.61;96957.34;5109293;28;20052;-67
2022/01/31 11:56:56;;;;;;;110.70;19.97;;;;;;;10.17;41.73;96963.47;5109214;28;20039;-67
2022/01/31 11:59:24;;;;;;;91.47;16.57;;;;;;;10.31;41.36;96959.66;5110001;28;20096;-67
2022/01/31 12:01:58;;;;;;;70.90;17.77;;;;;;;9.69;40.12;96965.94;5108022;28;20068;-69
2022/01/31 12:04:24;;;;;;;83.23;18.80;;;;;;;9.28;40.90;96955.06;5108201;28;20499;-68
2022/01/31 12:07:13;;;;;;;59.47;17.80;;;;;;;9.10;40.10;96968.22;5090101;28;20115;-68
2022/01/31 12:09:40;;;;;;;75.23;18.63;;;;;;;9.22;40.53;96947.16;5095984;28;20051;-66